createdAt,value
2024-02-17T00:01:28.122Z,26.95
2024-02-17T00:03:54.783Z,26.93
2024-02-17T00:06:21.349Z,26.92
2024-02-17T00:08:47.852Z,27.03
2024-02-17T00:11:14.321Z,26.91
2024-02-17T00:13:40.806Z,26.93
2024-02-17T00:16:07.261Z,26.83
2024-02-17T00:18:33.897Z,26.96
2024-02-17T00:21:00.434Z,26.98
2024-02-17T00:23:26.929Z,26.93
2024-02-17T00:25:53.461Z,26.88
2024-02-17T00:28:19.981Z,26.79
2024-02-17T00:30:46.416Z,26.87
2024-02-17T00:33:12.873Z,26.86
2024-02-17T00:35:39.358Z,26.94
2024-02-17T00:38:05.804Z,26.78
2024-02-17T00:40:32.309Z,27.00
2024-02-17T00:42:58.707Z,26.90
2024-02-17T00:45:25.143Z,26.79
2024-02-17T00:47:51.685Z,26.80
2024-02-17T00:50:18.149Z,26.75
2024-02-17T00:52:44.620Z,27.17
2024-02-17T00:55:11.033Z,26.99
2024-02-17T00:57:37.466Z,26.85
2024-02-17T01:00:03.972Z,26.80
2024-02-17T01:02:30.440Z,26.86
2024-02-17T01:04:56.887Z,26.94
2024-02-17T01:07:23.364Z,26.93
2024-02-17T01:09:49.913Z,26.77
2024-02-17T01:12:16.393Z,26.74
2024-02-17T01:14:42.878Z,26.89
2024-02-17T01:17:09.309Z,27.02
2024-02-17T01:19:35.770Z,26.95
2024-02-17T01:22:02.264Z,26.88
2024-02-17T01:24:28.832Z,26.80
2024-02-17T01:26:55.307Z,26.87
2024-02-17T01:29:21.758Z,27.07
2024-02-17T01:31:48.167Z,26.69
2024-02-17T01:34:14.681Z,26.86
2024-02-17T01:36:41.210Z,26.96
2024-02-17T01:39:07.702Z,26.96
2024-02-17T01:41:34.208Z,26.93
2024-02-17T01:44:00.675Z,27.00
2024-02-17T01:46:27.082Z,26.88
2024-02-17T01:48:53.699Z,26.84
2024-02-17T01:51:20.349Z,26.72
2024-02-17T01:53:46.834Z,26.82
2024-02-17T01:56:13.272Z,26.89
2024-02-17T01:58:39.764Z,26.80
2024-02-17T02:01:06.493Z,26.71
2024-02-17T02:03:33.299Z,26.82
2024-02-17T02:05:59.927Z,26.90
2024-02-17T02:08:26.375Z,26.85
2024-02-17T02:10:52.822Z,26.73
2024-02-17T02:13:19.413Z,26.80
2024-02-17T02:15:53.734Z,26.90
2024-02-17T02:18:21.676Z,26.79
2024-02-17T02:20:48.185Z,26.80
2024-02-17T02:23:14.609Z,26.75
2024-02-17T02:25:41.057Z,26.81
2024-02-17T02:28:07.512Z,26.80
2024-02-17T02:30:34.020Z,26.79
2024-02-17T02:33:00.694Z,26.75
2024-02-17T02:35:27.232Z,26.89
2024-02-17T02:37:53.695Z,26.69
2024-02-17T02:40:20.141Z,26.75
2024-02-17T02:42:46.586Z,26.77
2024-02-17T02:45:13.125Z,26.75
2024-02-17T02:47:39.645Z,26.81
2024-02-17T02:50:06.185Z,26.71
2024-02-17T02:52:32.709Z,26.87
2024-02-17T02:54:59.136Z,26.81
2024-02-17T02:57:25.608Z,26.70
2024-02-17T02:59:52.086Z,26.76
2024-02-17T03:02:18.494Z,26.80
2024-02-17T03:04:45.084Z,26.81
2024-02-17T03:07:11.807Z,26.72
2024-02-17T03:09:38.326Z,26.81
2024-02-17T03:12:04.808Z,26.77
2024-02-17T03:14:31.229Z,26.77
2024-02-17T03:16:57.716Z,26.90
2024-02-17T03:19:24.293Z,26.81
2024-02-17T03:21:50.917Z,26.83
2024-02-17T03:24:17.492Z,26.69
2024-02-17T03:26:43.963Z,26.70
2024-02-17T03:29:10.396Z,26.67
2024-02-17T03:31:36.824Z,26.81
2024-02-17T03:34:03.300Z,26.58
2024-02-17T03:36:29.795Z,26.73
2024-02-17T03:38:56.254Z,26.90
2024-02-17T03:41:22.647Z,26.77
2024-02-17T03:43:49.138Z,26.78
2024-02-17T03:46:15.532Z,26.72
2024-02-17T03:48:42.208Z,26.60
2024-02-17T03:51:08.708Z,26.77
2024-02-17T03:53:35.124Z,26.63
2024-02-17T03:56:01.596Z,26.85
2024-02-17T03:58:28.036Z,26.85
2024-02-17T04:00:54.585Z,26.69
2024-02-17T04:03:21.106Z,26.59
2024-02-17T04:05:47.566Z,26.66
2024-02-17T04:08:13.999Z,26.64
2024-02-17T04:10:40.485Z,26.69
2024-02-17T04:13:06.973Z,26.61
2024-02-17T04:15:33.465Z,26.68
2024-02-17T04:18:00.028Z,26.66
2024-02-17T04:20:26.593Z,26.86
2024-02-17T04:22:53.095Z,26.53
2024-02-17T04:25:19.554Z,26.65
2024-02-17T04:27:46.076Z,26.76
2024-02-17T04:30:12.597Z,26.79
2024-02-17T04:32:39.129Z,26.50
2024-02-17T04:35:05.786Z,26.64
2024-02-17T04:37:32.437Z,26.68
2024-02-17T04:39:58.895Z,26.58
2024-02-17T04:42:25.338Z,26.70
2024-02-17T04:44:51.849Z,26.61
2024-02-17T04:47:18.262Z,26.59
2024-02-17T04:49:44.771Z,26.55
2024-02-17T04:52:11.275Z,26.55
2024-02-17T04:54:37.722Z,26.59
2024-02-17T04:57:04.236Z,26.58
2024-02-17T04:59:30.701Z,26.61
2024-02-17T05:01:57.115Z,26.71
2024-02-17T05:04:23.690Z,26.49
2024-02-17T05:06:50.290Z,26.50
2024-02-17T05:09:16.768Z,26.56
2024-02-17T05:11:43.201Z,26.50
2024-02-17T05:14:09.627Z,26.52
2024-02-17T05:16:36.042Z,26.67
2024-02-17T05:19:02.541Z,26.58
2024-02-17T05:21:29.059Z,26.58
2024-02-17T05:23:55.506Z,26.42
2024-02-17T05:26:21.926Z,26.50
2024-02-17T05:28:48.376Z,26.47
2024-02-17T05:31:14.789Z,26.31
2024-02-17T05:33:41.284Z,26.50
2024-02-17T05:36:07.851Z,26.28
2024-02-17T05:38:34.282Z,26.30
2024-02-17T05:41:00.703Z,26.44
2024-02-17T05:43:27.131Z,26.71
2024-02-17T05:45:53.647Z,26.29
2024-02-17T05:48:20.197Z,26.53
2024-02-17T05:50:46.706Z,26.30
2024-02-17T05:53:13.150Z,26.53
2024-02-17T05:55:39.586Z,26.43
2024-02-17T05:58:06.023Z,26.46
2024-02-17T06:00:32.475Z,26.57
2024-02-17T06:02:58.941Z,26.19
2024-02-17T06:05:25.354Z,26.35
2024-02-17T06:07:51.998Z,26.38
2024-02-17T06:10:18.455Z,26.35
2024-02-17T06:12:44.930Z,26.32
2024-02-17T06:15:11.428Z,26.34
2024-02-17T06:17:37.917Z,26.22
2024-02-17T06:20:04.470Z,26.17
2024-02-17T06:22:31.022Z,26.23
2024-02-17T06:24:57.505Z,26.32
2024-02-17T06:27:24.004Z,26.24
2024-02-17T06:29:50.437Z,26.28
2024-02-17T06:32:16.845Z,26.26
2024-02-17T06:34:43.532Z,26.23
2024-02-17T06:37:10.089Z,26.29
2024-02-17T06:39:36.582Z,26.28
2024-02-17T06:42:03.050Z,26.25
2024-02-17T06:44:29.501Z,26.26
2024-02-17T06:46:55.914Z,26.25
2024-02-17T06:49:22.440Z,26.40
2024-02-17T06:51:49.069Z,26.31
2024-02-17T06:54:15.493Z,26.22
2024-02-17T06:56:41.949Z,26.12
2024-02-17T06:59:08.368Z,26.17
2024-02-17T07:01:34.834Z,26.35
2024-02-17T07:04:01.360Z,26.17
2024-02-17T07:06:27.997Z,26.21
2024-02-17T07:08:54.570Z,26.18
2024-02-17T07:11:21.043Z,26.28
2024-02-17T07:13:47.474Z,26.12
2024-02-17T07:16:13.924Z,26.00
2024-02-17T07:18:40.446Z,26.27
2024-02-17T07:21:07.077Z,26.21
2024-02-17T07:23:33.590Z,26.12
2024-02-17T07:26:00.011Z,26.16
2024-02-17T07:28:26.437Z,26.15
2024-02-17T07:30:52.977Z,26.27
2024-02-17T07:33:19.606Z,26.15
2024-02-17T07:35:46.353Z,26.21
2024-02-17T07:38:13.428Z,26.13
2024-02-17T07:40:39.960Z,26.25
2024-02-17T07:43:06.488Z,26.47
2024-02-17T07:45:33.005Z,26.32
2024-02-17T07:47:59.474Z,26.35
2024-02-17T07:50:26.058Z,26.40
2024-02-17T07:52:52.562Z,26.28
2024-02-17T07:55:18.973Z,26.36
2024-02-17T07:57:45.411Z,26.33
2024-02-17T08:00:13.790Z,26.34
2024-02-17T08:02:41.120Z,26.37
2024-02-17T08:05:07.625Z,26.46
2024-02-17T08:07:34.073Z,26.62
2024-02-17T08:10:00.603Z,26.52
2024-02-17T08:12:27.072Z,26.55
2024-02-17T08:14:53.697Z,26.45
2024-02-17T08:17:20.121Z,26.42
2024-02-17T08:19:46.669Z,26.55
2024-02-17T08:22:13.252Z,26.73
2024-02-17T08:24:39.767Z,26.77
2024-02-17T08:27:06.266Z,26.73
2024-02-17T08:29:32.731Z,26.72
2024-02-17T08:31:59.180Z,26.71
2024-02-17T08:34:25.777Z,26.74
2024-02-17T08:36:52.398Z,26.97
2024-02-17T08:39:19.036Z,26.90
2024-02-17T08:41:45.466Z,26.55
2024-02-17T08:44:14.426Z,27.16
2024-02-17T08:46:41.339Z,27.02
2024-02-17T08:49:08.016Z,27.04
2024-02-17T08:51:34.705Z,27.27
2024-02-17T08:54:01.167Z,27.09
2024-02-17T08:56:27.596Z,27.16
2024-02-17T08:58:54.052Z,27.16
2024-02-17T09:01:20.707Z,27.17
2024-02-17T09:03:47.257Z,27.19
2024-02-17T09:06:13.811Z,27.45
2024-02-17T09:08:40.268Z,27.39
2024-02-17T09:11:06.732Z,27.43
2024-02-17T09:13:33.222Z,27.57
2024-02-17T09:15:59.708Z,27.49
2024-02-17T09:18:26.276Z,27.39
2024-02-17T09:20:52.808Z,27.43
2024-02-17T09:23:19.219Z,27.54
2024-02-17T09:25:45.678Z,27.60
2024-02-17T09:28:12.123Z,27.72
2024-02-17T09:30:38.585Z,27.71
2024-02-17T09:33:05.180Z,27.79
2024-02-17T09:35:31.675Z,27.88
2024-02-17T09:37:58.077Z,27.79
2024-02-17T09:40:24.492Z,27.86
2024-02-17T09:42:50.993Z,28.01
2024-02-17T09:45:17.594Z,27.97
2024-02-17T09:47:44.027Z,27.83
2024-02-17T09:50:10.620Z,27.90
2024-02-17T09:52:37.168Z,27.83
2024-02-17T09:55:03.646Z,28.09
2024-02-17T09:57:37.648Z,28.18
2024-02-17T10:00:09.171Z,28.12
2024-02-17T10:02:38.274Z,27.94
2024-02-17T10:05:04.765Z,28.13
2024-02-17T10:07:31.296Z,28.28
2024-02-17T10:09:57.743Z,28.23
2024-02-17T10:12:24.224Z,28.21
2024-02-17T10:14:50.668Z,28.49
2024-02-17T10:17:17.091Z,28.37
2024-02-17T10:19:43.575Z,28.40
2024-02-17T10:22:10.070Z,28.30
2024-02-17T10:24:36.535Z,28.30
2024-02-17T10:27:02.972Z,28.44
2024-02-17T10:29:29.395Z,28.46
2024-02-17T10:31:55.842Z,28.58
2024-02-17T10:34:22.439Z,28.74
2024-02-17T10:36:49.049Z,28.52
2024-02-17T10:39:15.535Z,28.79
2024-02-17T10:41:41.956Z,28.92
2024-02-17T10:44:08.414Z,28.90
2024-02-17T10:46:35.261Z,29.04
2024-02-17T10:49:01.875Z,29.10
2024-02-17T10:51:28.475Z,29.06
2024-02-17T10:53:54.935Z,29.40
2024-02-17T10:56:21.349Z,29.31
2024-02-17T10:58:47.769Z,29.62
2024-02-17T11:01:14.252Z,29.36
2024-02-17T11:03:40.720Z,29.60
2024-02-17T11:06:07.306Z,29.74
2024-02-17T11:08:33.790Z,29.85
2024-02-17T11:11:00.252Z,29.78
2024-02-17T11:13:26.720Z,29.98
2024-02-17T11:15:53.182Z,29.97
2024-02-17T11:18:19.752Z,30.02
2024-02-17T11:20:46.314Z,30.20
2024-02-17T11:23:12.772Z,30.35
2024-02-17T11:25:39.180Z,30.28
2024-02-17T11:28:05.678Z,30.41
2024-02-17T11:30:32.274Z,30.53
2024-02-17T11:35:25.516Z,30.69
2024-02-17T11:37:52.106Z,30.92
2024-02-17T11:40:18.542Z,31.01
2024-02-17T11:42:44.956Z,30.82
2024-02-17T11:45:11.448Z,30.99
2024-02-17T11:47:37.922Z,31.33
2024-02-17T11:50:04.440Z,31.23
2024-02-17T11:52:30.936Z,31.17
2024-02-17T11:54:57.568Z,31.26
2024-02-17T11:57:24.039Z,31.65
2024-02-17T11:59:50.510Z,31.70
2024-02-17T12:02:16.920Z,31.72
2024-02-17T12:04:43.362Z,31.56
2024-02-17T12:07:09.953Z,31.82
2024-02-17T12:09:36.568Z,31.81
2024-02-17T12:12:03.029Z,31.72
2024-02-17T12:14:29.439Z,31.90
2024-02-17T12:16:55.890Z,32.10
2024-02-17T12:19:22.399Z,32.27
2024-02-17T12:21:48.889Z,32.08
2024-02-17T12:24:15.389Z,32.10
2024-02-17T12:26:47.044Z,32.07
2024-02-17T12:29:14.515Z,32.48
2024-02-17T12:31:40.946Z,32.51
2024-02-17T12:34:07.484Z,32.54
2024-02-17T12:36:34.094Z,32.58
2024-02-17T12:39:00.543Z,32.69
2024-02-17T12:41:29.539Z,32.83
2024-02-17T12:43:56.574Z,32.63
2024-02-17T12:46:23.343Z,32.90
2024-02-17T12:48:49.908Z,32.91
2024-02-17T12:51:16.424Z,33.00
2024-02-17T12:53:42.870Z,33.10
2024-02-17T12:56:09.330Z,33.24
2024-02-17T12:58:35.749Z,33.03
2024-02-17T13:01:02.224Z,33.20
2024-02-17T13:03:28.827Z,33.28
2024-02-17T13:05:55.442Z,33.10
2024-02-17T13:08:21.918Z,33.47
2024-02-17T13:10:48.384Z,33.55
2024-02-17T13:13:14.828Z,33.38
2024-02-17T13:15:41.315Z,33.71
2024-02-17T13:18:08.421Z,33.60
2024-02-17T13:20:34.948Z,33.79
2024-02-17T13:23:01.403Z,33.54
2024-02-17T13:25:27.823Z,33.77
2024-02-17T13:27:54.334Z,33.66
2024-02-17T13:30:20.897Z,33.85
2024-02-17T13:32:47.481Z,33.89
2024-02-17T13:35:14.150Z,33.88
2024-02-17T13:37:40.669Z,34.25
2024-02-17T13:40:07.085Z,34.10
2024-02-17T13:42:33.526Z,34.27
2024-02-17T13:44:59.961Z,34.25
2024-02-17T13:47:26.503Z,34.27
2024-02-17T13:49:53.067Z,34.27
2024-02-17T13:52:19.692Z,34.64
2024-02-17T13:54:46.216Z,34.73
2024-02-17T13:57:12.673Z,34.44
2024-02-17T13:59:39.144Z,34.56
2024-02-17T14:02:05.557Z,34.70
2024-02-17T14:04:32.040Z,34.92
2024-02-17T14:06:58.580Z,34.86
2024-02-17T14:09:25.077Z,35.08
2024-02-17T14:11:51.508Z,35.09
2024-02-17T14:14:19.835Z,34.94
2024-02-17T14:16:46.523Z,34.97
2024-02-17T14:19:13.144Z,34.99
2024-02-17T14:21:39.737Z,35.28
2024-02-17T14:24:06.609Z,35.00
2024-02-17T14:26:33.802Z,35.20
2024-02-17T14:29:00.239Z,35.17
2024-02-17T14:31:26.790Z,35.24
2024-02-17T14:33:53.353Z,35.24
2024-02-17T14:36:19.883Z,35.29
2024-02-17T14:38:46.343Z,35.49
2024-02-17T14:41:12.755Z,35.26
2024-02-17T14:43:39.177Z,35.63
2024-02-17T14:46:05.703Z,35.36
2024-02-17T14:48:32.262Z,35.69
2024-02-17T14:50:58.783Z,35.44
2024-02-17T14:53:25.207Z,35.56
2024-02-17T14:55:51.587Z,35.63
2024-02-17T14:58:18.046Z,35.57
2024-02-17T15:00:44.618Z,35.68
2024-02-17T15:03:11.176Z,35.76
2024-02-17T15:05:37.722Z,35.60
2024-02-17T15:08:04.129Z,35.73
2024-02-17T15:10:30.550Z,35.95
2024-02-17T15:12:57.089Z,36.01
2024-02-17T15:15:23.559Z,35.96
2024-02-17T15:17:50.019Z,35.98
2024-02-17T15:20:16.500Z,35.91
2024-02-17T15:22:42.930Z,36.09
2024-02-17T15:25:09.421Z,36.23
2024-02-17T15:27:35.970Z,36.22
2024-02-17T15:30:02.457Z,35.96
2024-02-17T15:32:28.859Z,36.13
2024-02-17T15:34:55.483Z,36.29
2024-02-17T15:37:22.035Z,36.12
2024-02-17T15:39:48.481Z,36.33
2024-02-17T15:42:15.003Z,36.28
2024-02-17T15:44:41.481Z,36.41
2024-02-17T15:47:07.887Z,36.38
2024-02-17T15:49:34.409Z,36.28
2024-02-17T15:52:00.909Z,36.36
2024-02-17T15:54:27.402Z,36.47
2024-02-17T15:56:53.902Z,36.36
2024-02-17T15:59:20.323Z,36.44
2024-02-17T16:01:46.794Z,36.57
2024-02-17T16:04:13.347Z,36.36
2024-02-17T16:06:39.920Z,36.22
2024-02-17T16:09:06.389Z,36.31
2024-02-17T16:11:32.861Z,36.28
2024-02-17T16:13:59.272Z,36.21
2024-02-17T16:16:25.724Z,36.03
2024-02-17T16:18:52.281Z,36.17
2024-02-17T16:21:18.816Z,36.07
2024-02-17T16:23:45.287Z,36.24
2024-02-17T16:26:11.845Z,36.05
2024-02-17T16:28:38.344Z,35.80
2024-02-17T16:31:04.834Z,36.00
2024-02-17T16:33:35.031Z,36.01
2024-02-17T16:36:02.715Z,35.79
2024-02-17T16:38:29.182Z,35.46
2024-02-17T16:40:55.627Z,35.50
2024-02-17T16:43:22.035Z,35.38
2024-02-17T16:45:48.506Z,35.26
2024-02-17T16:48:15.115Z,35.27
2024-02-17T16:50:41.642Z,35.12
2024-02-17T16:53:08.056Z,34.92
2024-02-17T16:55:34.753Z,34.99
2024-02-17T16:58:01.200Z,34.89
2024-02-17T17:00:27.769Z,34.75
2024-02-17T17:02:54.631Z,34.51
2024-02-17T17:05:21.193Z,34.31
2024-02-17T17:07:47.691Z,34.49
2024-02-17T17:10:14.156Z,34.35
2024-02-17T17:12:40.643Z,34.15
2024-02-17T17:15:07.127Z,34.09
2024-02-17T17:17:33.594Z,33.88
2024-02-17T17:20:03.324Z,34.06
2024-02-17T17:22:39.930Z,33.96
2024-02-17T17:25:13.210Z,33.95
2024-02-17T17:27:39.742Z,33.78
2024-02-17T17:30:06.213Z,33.93
2024-02-17T17:32:32.704Z,33.81
2024-02-17T17:34:59.327Z,33.80
2024-02-17T17:37:25.795Z,33.70
2024-02-17T17:39:52.351Z,33.63
2024-02-17T17:42:18.972Z,33.73
2024-02-17T17:44:45.418Z,33.58
2024-02-17T17:47:11.956Z,33.68
2024-02-17T17:49:38.451Z,33.65
2024-02-17T17:52:05.106Z,33.79
2024-02-17T17:54:31.709Z,33.79
2024-02-17T17:56:58.145Z,33.57
2024-02-17T17:59:24.582Z,33.80
2024-02-17T18:01:51.043Z,33.56
2024-02-17T18:04:17.649Z,33.49
2024-02-17T18:06:44.417Z,33.62
2024-02-17T18:09:10.977Z,33.54
2024-02-17T18:11:37.436Z,33.62
2024-02-17T18:14:03.853Z,33.65
2024-02-17T18:16:30.263Z,33.74
2024-02-17T18:18:56.846Z,33.82
2024-02-17T18:21:23.360Z,33.47
2024-02-17T18:23:49.807Z,33.63
2024-02-17T18:26:16.252Z,33.81
2024-02-17T18:28:42.653Z,33.61
2024-02-17T18:31:09.226Z,33.58
2024-02-17T18:33:35.807Z,33.76
2024-02-17T18:36:02.261Z,33.57
2024-02-17T18:38:28.702Z,33.62
2024-02-17T18:40:55.148Z,33.49
2024-02-17T18:43:21.682Z,33.48
2024-02-17T18:45:48.150Z,33.60
2024-02-17T18:48:14.673Z,33.50
2024-02-17T18:50:41.111Z,33.49
2024-02-17T18:53:07.550Z,33.61
2024-02-17T18:55:33.951Z,33.74
2024-02-17T18:58:00.532Z,33.66
2024-02-17T19:00:27.111Z,33.75
2024-02-17T19:02:53.589Z,33.81
2024-02-17T19:05:20.080Z,33.81
2024-02-17T19:07:46.558Z,33.51
2024-02-17T19:10:12.966Z,33.78
2024-02-17T19:12:39.442Z,33.86
2024-02-17T19:15:05.879Z,33.63
2024-02-17T19:17:32.333Z,33.74
2024-02-17T19:19:58.860Z,33.71
2024-02-17T19:22:25.364Z,33.67
2024-02-17T19:24:51.887Z,33.74
2024-02-17T19:27:18.375Z,33.55
2024-02-17T19:29:44.800Z,33.77
2024-02-17T19:32:11.256Z,33.70
2024-02-17T19:34:37.873Z,33.68
2024-02-17T19:37:04.493Z,33.57
2024-02-17T19:39:31.156Z,33.69
2024-02-17T19:41:57.622Z,33.70
2024-02-17T19:44:24.080Z,33.60
2024-02-17T19:46:50.505Z,33.65
2024-02-17T19:49:17.067Z,33.69
2024-02-17T19:51:43.612Z,33.77
2024-02-17T19:54:10.064Z,33.84
2024-02-17T19:56:36.497Z,33.75
2024-02-17T19:59:02.925Z,33.72
2024-02-17T20:01:29.490Z,33.83
2024-02-17T20:03:57.444Z,33.72
2024-02-17T20:06:23.981Z,33.75
2024-02-17T20:08:50.547Z,33.83
2024-02-17T20:11:17.117Z,33.87
2024-02-17T20:13:43.563Z,33.69
2024-02-17T20:16:10.033Z,33.84
2024-02-17T20:18:36.637Z,33.95
2024-02-17T20:21:03.110Z,33.88
2024-02-17T20:23:29.541Z,33.69
2024-02-17T20:25:55.980Z,33.79
2024-02-17T20:28:22.419Z,33.85
2024-02-17T20:30:48.899Z,33.74
2024-02-17T20:33:15.616Z,33.85
2024-02-17T20:35:42.115Z,34.02
2024-02-17T20:38:08.531Z,33.93
2024-02-17T20:40:34.983Z,33.93
2024-02-17T20:43:01.420Z,33.93
2024-02-17T20:45:27.910Z,33.88
2024-02-17T20:47:54.381Z,33.88
2024-02-17T20:50:20.876Z,33.94
2024-02-17T20:52:47.368Z,33.85
2024-02-17T20:55:13.804Z,34.05
2024-02-17T20:57:40.353Z,33.85
2024-02-17T21:00:06.948Z,34.03
2024-02-17T21:02:33.405Z,33.92
2024-02-17T21:05:00.043Z,33.82
2024-02-17T21:07:26.594Z,34.04
2024-02-17T21:09:53.121Z,33.75
2024-02-17T21:12:19.578Z,33.72
2024-02-17T21:14:46.051Z,33.86
2024-02-17T21:17:12.452Z,33.75
2024-02-17T21:19:39.096Z,33.96
2024-02-17T21:22:05.743Z,33.94
2024-02-17T21:24:32.257Z,33.95
2024-02-17T21:26:58.803Z,33.94
2024-02-17T21:29:25.222Z,33.90
2024-02-17T21:31:51.637Z,33.83
2024-02-17T21:34:18.283Z,33.99
2024-02-17T21:36:44.811Z,34.02
2024-02-17T21:39:11.311Z,33.90
2024-02-17T21:41:37.726Z,34.01
2024-02-17T21:44:04.162Z,33.94
2024-02-17T21:46:30.623Z,34.08
2024-02-17T21:48:57.182Z,33.94
2024-02-17T21:51:23.788Z,33.95
2024-02-17T21:53:50.637Z,33.84
2024-02-17T21:56:17.080Z,33.77
2024-02-17T21:58:43.555Z,33.88
2024-02-17T22:01:10.074Z,33.96
2024-02-17T22:03:36.667Z,33.99
2024-02-17T22:06:03.252Z,33.96
2024-02-17T22:08:29.853Z,33.81
2024-02-17T22:10:56.391Z,33.84
2024-02-17T22:13:22.843Z,33.89
2024-02-17T22:15:49.291Z,33.89
2024-02-17T22:18:15.859Z,33.85
2024-02-17T22:20:42.400Z,33.86
2024-02-17T22:23:08.826Z,33.89
2024-02-17T22:25:35.356Z,33.84
2024-02-17T22:28:01.891Z,33.75
2024-02-17T22:30:28.412Z,33.74
2024-02-17T22:32:54.889Z,33.73
2024-02-17T22:35:21.415Z,33.68
2024-02-17T22:37:47.907Z,33.59
2024-02-17T22:40:14.386Z,33.44
2024-02-17T22:42:40.850Z,33.38
2024-02-17T22:45:07.314Z,33.60
2024-02-17T22:47:33.758Z,33.46
2024-02-17T22:50:00.339Z,33.60
2024-02-17T22:52:26.865Z,33.39
2024-02-17T22:54:53.307Z,33.28
2024-02-17T22:57:19.835Z,33.36
2024-02-17T22:59:46.304Z,33.25
2024-02-17T23:02:12.723Z,33.25
2024-02-17T23:04:39.179Z,32.94
2024-02-17T23:07:05.687Z,33.12
2024-02-17T23:09:32.342Z,33.11
2024-02-17T23:11:58.808Z,32.94
2024-02-17T23:14:25.235Z,32.84
2024-02-17T23:16:51.675Z,32.79
2024-02-17T23:19:18.328Z,32.69
2024-02-17T23:21:46.775Z,32.73
2024-02-17T23:24:13.799Z,32.56
2024-02-17T23:26:40.204Z,32.52
2024-02-17T23:29:06.652Z,32.57
2024-02-17T23:31:33.060Z,32.59
2024-02-17T23:33:59.595Z,32.40
2024-02-17T23:36:26.136Z,32.43
2024-02-17T23:38:52.536Z,32.40
2024-02-17T23:41:18.970Z,32.43
2024-02-17T23:43:45.415Z,32.40
2024-02-17T23:46:11.846Z,32.21
2024-02-17T23:48:38.353Z,32.42
2024-02-17T23:51:04.863Z,32.37
2024-02-17T23:53:31.267Z,32.38
2024-02-17T23:55:57.697Z,32.31
2024-02-17T23:58:24.138Z,32.09
